Time;durP1;ratioP1;P1;durP2;ratioP2;P2;SDS_P1;SDS_P2;PMS_P1;PMS_P2;Temp;Humidity;BMP_temperature;BMP_pressure;BME280_temperature;BME280_humidity;BME280_pressure;Samples;Min_cycle;Max_cycle;Signal;HPM_P1;HPM_P2
2022/04/30 00:00:53;;;;;;;1.55;1.30;;;10.40;99.90;;;;;;4969774;28;20043;-77
2022/04/30 00:03:19;;;;;;;1.65;1.55;;;10.30;99.90;;;;;;4970783;28;20022;-76
2022/04/30 00:05:44;;;;;;;1.35;1.20;;;10.30;99.90;;;;;;4971354;28;20035;-77
2022/04/30 00:08:10;;;;;;;0.75;0.75;;;10.30;99.90;;;;;;4972766;28;20027;-76
2022/04/30 00:10:38;;;;;;;2.47;1.67;;;10.20;99.90;;;;;;4968958;28;20035;-76
2022/04/30 00:13:06;;;;;;;0.93;0.68;;;10.20;99.90;;;;;;4968466;28;20106;-76
2022/04/30 00:15:34;;;;;;;0.98;0.98;;;10.10;99.90;;;;;;4975220;28;20382;-76
2022/04/30 00:18:01;;;;;;;1.80;1.40;;;10.10;99.90;;;;;;4970819;28;20043;-77
2022/04/30 00:20:26;;;;;;;0.50;0.50;;;10.00;99.90;;;;;;4972673;28;20031;-76
2022/04/30 00:22:52;;;;;;;0.52;0.52;;;9.90;99.90;;;;;;4968020;28;20630;-76
2022/04/30 00:25:17;;;;;;;1.38;1.27;;;9.90;99.90;;;;;;4966846;28;20038;-74
2022/04/30 00:27:43;;;;;;;2.42;1.40;;;9.90;99.90;;;;;;4965540;28;20307;-75
2022/04/30 00:30:09;;;;;;;0.80;0.80;;;9.90;99.90;;;;;;4966222;28;20035;-77
2022/04/30 00:32:35;;;;;;;1.48;1.38;;;9.90;99.90;;;;;;4963767;28;20022;-76
2022/04/30 00:35:01;;;;;;;1.13;1.13;;;9.80;99.90;;;;;;4964426;28;20090;-76
2022/04/30 00:37:26;;;;;;;1.15;0.55;;;9.80;99.90;;;;;;4964043;28;20046;-76
2022/04/30 00:39:52;;;;;;;1.92;1.80;;;9.70;99.90;;;;;;4965369;28;20026;-76
2022/04/30 00:42:17;;;;;;;0.38;0.38;;;9.70;99.90;;;;;;4966069;28;20034;-76
2022/04/30 00:44:43;;;;;;;1.10;0.55;;;9.60;99.90;;;;;;4965162;28;20398;-76
2022/04/30 00:47:14;;;;;;;0.32;0.32;;;9.70;99.90;;;;;;4965659;28;20058;-77
2022/04/30 00:49:40;;;;;;;1.38;1.17;;;9.60;99.90;;;;;;4964406;28;20045;-76
2022/04/30 00:52:06;;;;;;;1.08;1.00;;;9.60;99.90;;;;;;4965827;28;20031;-76
2022/04/30 00:54:36;;;;;;;0.73;0.73;;;9.60;99.90;;;;;;4967439;28;20027;-77
2022/04/30 00:57:03;;;;;;;0.70;0.70;;;9.60;99.90;;;;;;4964767;28;20501;-76
2022/04/30 00:59:30;;;;;;;0.43;0.43;;;9.50;99.90;;;;;;4962482;28;20041;-77
2022/04/30 01:01:59;;;;;;;0.73;0.73;;;9.50;99.90;;;;;;4964300;28;20122;-76
2022/04/30 01:04:24;;;;;;;1.30;1.27;;;9.50;99.90;;;;;;4964830;28;20035;-77
2022/04/30 01:06:56;;;;;;;0.50;0.47;;;9.50;99.90;;;;;;4966291;28;20026;-77
2022/04/30 01:09:25;;;;;;;0.55;0.55;;;9.50;99.90;;;;;;4963563;28;21603;-77
2022/04/30 01:11:56;;;;;;;0.93;0.55;;;9.50;99.90;;;;;;4964730;28;20057;-76
2022/04/30 01:14:22;;;;;;;0.67;0.57;;;9.50;99.90;;;;;;4965532;28;20117;-76
2022/04/30 01:16:49;;;;;;;0.40;0.40;;;9.50;99.90;;;;;;4966290;28;20023;-76
2022/04/30 01:19:18;;;;;;;0.85;0.77;;;9.50;99.90;;;;;;4964846;28;20042;-76
2022/04/30 01:21:48;;;;;;;0.63;0.63;;;9.40;99.90;;;;;;4963814;28;20049;-76
2022/04/30 01:24:13;;;;;;;1.38;1.27;;;9.40;99.90;;;;;;4962674;28;20042;-76
2022/04/30 01:26:39;;;;;;;0.20;0.20;;;9.40;99.90;;;;;;4964668;28;20027;-76
2022/04/30 01:29:04;;;;;;;0.98;0.90;;;9.40;99.90;;;;;;4965249;28;20035;-76
2022/04/30 01:39:42;;;;;;;1.08;1.00;;;9.20;99.90;;;;;;4963429;28;20453;-77
2022/04/30 01:42:12;;;;;;;0.98;0.95;;;9.20;99.90;;;;;;4965567;28;20023;-76
2022/04/30 01:44:39;;;;;;;0.38;0.38;;;9.20;99.90;;;;;;4963944;28;20066;-76
2022/04/30 01:47:06;;;;;;;0.13;0.13;;;9.10;99.90;;;;;;4964305;28;20039;-76
2022/04/30 01:49:31;;;;;;;0.28;0.28;;;9.10;99.90;;;;;;4965959;28;20058;-76
2022/04/30 01:51:56;;;;;;;0.35;0.35;;;9.10;99.90;;;;;;4965131;28;20081;-76
2022/04/30 01:54:22;;;;;;;0.32;0.32;;;9.10;99.90;;;;;;4963925;28;20026;-77
2022/04/30 01:56:47;;;;;;;0.80;0.80;;;9.00;99.90;;;;;;4963414;28;20125;-77
2022/04/30 01:59:13;;;;;;;0.73;0.73;;;9.00;99.90;;;;;;4964676;28;20034;-77
2022/04/30 02:01:42;;;;;;;0.80;0.80;;;9.00;99.90;;;;;;4964996;28;20094;-77
2022/04/30 02:04:08;;;;;;;2.83;2.10;;;9.00;99.90;;;;;;4961907;28;20782;-77
2022/04/30 02:06:33;;;;;;;0.68;0.55;;;8.90;99.90;;;;;;4965776;28;20053;-76
2022/04/30 02:08:59;;;;;;;0.52;0.52;;;8.90;99.90;;;;;;4966091;28;20042;-76
2022/04/30 02:11:25;;;;;;;0.40;0.40;;;8.80;99.90;;;;;;4961637;28;20158;-77
2022/04/30 02:13:56;;;;;;;0.47;0.47;;;8.80;99.90;;;;;;4962496;28;20117;-82
2022/04/30 02:16:23;;;;;;;0.80;0.80;;;8.70;99.90;;;;;;4956300;28;20031;-81
2022/04/30 02:18:51;;;;;;;5.93;1.77;;;8.70;99.90;;;;;;4955341;28;20031;-81
2022/04/30 02:21:20;;;;;;;0.65;0.43;;;8.70;99.90;;;;;;4954410;28;20035;-80
2022/04/30 02:23:47;;;;;;;0.10;0.10;;;8.70;99.90;;;;;;4962666;28;20066;-81
2022/04/30 02:26:13;;;;;;;0.73;0.73;;;8.60;99.90;;;;;;4961637;28;20965;-81
2022/04/30 02:28:39;;;;;;;0.20;0.20;;;8.40;99.90;;;;;;4964098;28;20038;-81
2022/04/30 02:31:04;;;;;;;0.43;0.43;;;8.50;99.90;;;;;;4964597;28;20042;-81
2022/04/30 02:33:29;;;;;;;0.40;0.40;;;8.60;99.90;;;;;;4963387;28;20102;-81
2022/04/30 02:35:58;;;;;;;0.47;0.38;;;8.60;99.90;;;;;;4963368;28;20042;-81
2022/04/30 02:38:24;;;;;;;0.73;0.73;;;8.70;99.90;;;;;;4961927;28;20699;-81
2022/04/30 02:40:50;;;;;;;1.17;0.88;;;8.70;99.90;;;;;;4963614;28;20042;-81
2022/04/30 02:43:16;;;;;;;1.33;1.15;;;8.60;99.90;;;;;;4963036;28;20052;-81
2022/04/30 02:45:43;;;;;;;2.20;1.45;;;8.60;99.90;;;;;;4962636;28;20391;-81
2022/04/30 02:48:09;;;;;;;0.60;0.32;;;8.60;99.90;;;;;;4964307;28;20055;-81
2022/04/30 02:50:36;;;;;;;0.20;0.20;;;8.50;99.90;;;;;;4963909;28;20035;-80
2022/04/30 02:53:02;;;;;;;0.28;0.28;;;8.50;99.90;;;;;;4961039;28;20548;-80
2022/04/30 02:55:28;;;;;;;1.35;0.63;;;8.50;99.90;;;;;;4964368;28;20035;-81
2022/04/30 03:00:42;;;;;;;0.50;0.32;;;8.40;99.90;;;;;;4961494;28;20049;-80
2022/04/30 03:03:09;;;;;;;0.20;0.20;;;8.50;99.90;;;;;;4975890;28;20125;-81
2022/04/30 03:05:40;;;;;;;0.22;0.22;;;8.50;99.90;;;;;;4962744;28;20466;-81
2022/04/30 03:08:13;;;;;;;;;;;8.50;99.90;;;;;;4963263;28;20042;-81
2022/04/30 03:10:40;;;;;;;0.20;0.20;;;8.40;99.90;;;;;;4963564;28;19922;-80
2022/04/30 03:13:06;;;;;;;0.35;0.32;;;8.40;99.90;;;;;;4963092;28;20105;-81
2022/04/30 03:15:37;;;;;;;0.75;0.73;;;8.30;99.90;;;;;;4962809;28;20023;-80
2022/04/30 03:21:42;;;;;;;0.10;0.10;;;8.30;99.90;;;;;;4963332;28;20465;-80
2022/04/30 03:23:43;;;;;;;0.10;0.10;;;8.30;99.90;;;;;;4963933;28;20122;-79
2022/04/30 03:26:09;;;;;;;0.20;0.20;;;8.30;99.90;;;;;;4962001;28;20450;-79
2022/04/30 03:28:40;;;;;;;1.35;0.65;;;8.30;99.90;;;;;;4963950;28;20062;-80
2022/04/30 03:31:07;;;;;;;0.30;0.30;;;8.20;99.90;;;;;;4963652;28;20039;-80
2022/04/30 03:33:33;;;;;;;0.73;0.73;;;8.20;99.90;;;;;;4962711;28;20352;-79
2022/04/30 03:35:59;;;;;;;0.32;0.32;;;8.20;99.90;;;;;;4962988;28;20045;-79
2022/04/30 03:38:25;;;;;;;0.35;0.35;;;8.20;99.90;;;;;;4958327;28;20054;-79
2022/04/30 03:40:51;;;;;;;0.50;0.50;;;8.20;99.90;;;;;;4964597;28;20509;-80
2022/04/30 03:43:17;;;;;;;6.15;1.73;;;8.20;99.90;;;;;;4962010;28;20039;-79
2022/04/30 03:45:43;;;;;;;0.17;0.17;;;8.10;99.90;;;;;;4964119;28;20050;-80
2022/04/30 03:48:09;;;;;;;0.30;0.30;;;8.10;99.90;;;;;;4961114;28;20378;-79
2022/04/30 03:50:34;;;;;;;0.38;0.38;;;8.10;99.90;;;;;;4963485;28;20058;-80
2022/04/30 03:53:00;;;;;;;0.05;0.05;;;8.10;99.90;;;;;;4964123;28;20054;-79
2022/04/30 03:55:27;;;;;;;1.75;1.52;;;8.00;99.90;;;;;;4961956;28;20030;-80
2022/04/30 03:57:56;;;;;;;0.20;0.20;;;8.10;99.90;;;;;;4961319;28;20031;-80
2022/04/30 04:00:22;;;;;;;0.35;0.35;;;8.00;99.90;;;;;;4961047;28;20026;-80
2022/04/30 04:02:48;;;;;;;2.90;1.35;;;8.00;99.90;;;;;;4963611;28;20030;-80
2022/04/30 04:05:15;;;;;;;4.90;3.80;;;8.00;99.90;;;;;;4963583;28;20035;-80
2022/04/30 04:07:41;;;;;;;2.42;2.20;;;8.00;99.90;;;;;;4960942;28;20085;-80
2022/04/30 04:10:09;;;;;;;1.45;1.20;;;8.00;99.90;;;;;;4963362;28;20038;-80
2022/04/30 04:12:38;;;;;;;4.22;2.65;;;8.00;99.90;;;;;;4963154;28;20038;-80
2022/04/30 04:17:50;;;;;;;2.65;2.05;;;8.10;99.90;;;;;;4962917;28;20521;-80
2022/04/30 04:20:19;;;;;;;0.75;0.68;;;8.10;99.90;;;;;;4962657;28;20043;-80
2022/04/30 04:22:46;;;;;;;0.82;0.82;;;8.00;99.90;;;;;;4962472;28;20027;-80
2022/04/30 04:27:58;;;;;;;2.80;1.17;;;8.10;99.90;;;;;;4961634;28;20090;-80
2022/04/30 04:30:26;;;;;;;0.68;0.68;;;8.10;99.90;;;;;;4960037;28;20568;-81
2022/04/30 04:32:52;;;;;;;0.50;0.50;;;8.20;99.90;;;;;;4963675;28;20039;-80
2022/04/30 04:35:18;;;;;;;0.10;0.10;;;8.20;99.90;;;;;;4964262;28;20034;-80
2022/04/30 04:37:44;;;;;;;0.85;0.85;;;8.20;99.90;;;;;;4965582;28;20058;-80
2022/04/30 04:40:11;;;;;;;0.60;0.60;;;8.30;99.90;;;;;;4964253;28;20027;-81
2022/04/30 04:42:38;;;;;;;0.20;0.20;;;8.20;99.90;;;;;;4961890;28;20048;-81
2022/04/30 04:45:04;;;;;;;0.00;0.00;;;8.30;99.90;;;;;;4966095;28;20047;-78
2022/04/30 04:47:30;;;;;;;0.63;0.60;;;8.30;99.90;;;;;;4965052;28;20669;-81
2022/04/30 04:49:56;;;;;;;0.40;0.40;;;8.40;99.90;;;;;;4966869;28;20078;-84
2022/04/30 04:52:21;;;;;;;0.40;0.40;;;8.40;99.90;;;;;;4965764;28;20121;-87
2022/04/30 04:54:47;;;;;;;0.13;0.13;;;8.40;99.90;;;;;;4967650;28;20112;-80
2022/04/30 04:57:13;;;;;;;0.25;0.25;;;8.50;99.90;;;;;;4963690;28;20113;-80
2022/04/30 04:59:38;;;;;;;0.45;0.43;;;8.50;99.90;;;;;;4964931;28;20093;-80
2022/04/30 05:02:04;;;;;;;8.10;1.83;;;8.60;99.90;;;;;;4964228;28;20029;-82
2022/04/30 05:04:31;;;;;;;2.17;1.75;;;8.60;99.90;;;;;;4964574;28;20383;-80
2022/04/30 05:06:57;;;;;;;0.68;0.68;;;8.70;99.90;;;;;;4964989;28;20517;-81
2022/04/30 05:09:23;;;;;;;0.40;0.40;;;8.70;99.90;;;;;;4967483;28;20042;-82
2022/04/30 05:11:48;;;;;;;0.50;0.50;;;8.70;99.90;;;;;;4964575;28;20045;-81
2022/04/30 05:14:14;;;;;;;0.63;0.63;;;8.80;99.90;;;;;;4965973;28;20054;-82
2022/04/30 05:16:39;;;;;;;0.15;0.15;;;8.80;99.90;;;;;;4966670;28;20559;-80
2022/04/30 05:19:05;;;;;;;0.00;0.00;;;8.80;99.90;;;;;;4965111;28;20019;-80
2022/04/30 05:21:31;;;;;;;0.55;0.55;;;8.70;99.90;;;;;;4965690;28;20058;-80
2022/04/30 05:23:57;;;;;;;0.00;0.00;;;8.90;99.90;;;;;;4963996;28;20039;-83
2022/04/30 05:26:23;;;;;;;6.28;1.33;;;9.10;99.90;;;;;;4960976;28;20714;-84
2022/04/30 05:28:48;;;;;;;0.10;0.10;;;9.20;99.90;;;;;;4956150;28;20047;-85
2022/04/30 05:31:13;;;;;;;0.47;0.47;;;9.20;99.90;;;;;;4960209;28;20551;-85
2022/04/30 05:33:39;;;;;;;0.30;0.25;;;9.30;99.90;;;;;;4964066;28;20035;-84
2022/04/30 05:36:05;;;;;;;0.05;0.05;;;9.30;99.90;;;;;;4961251;28;20019;-84
2022/04/30 05:38:30;;;;;;;0.15;0.15;;;9.40;99.90;;;;;;4962142;28;20242;-85
2022/04/30 05:40:56;;;;;;;0.10;0.10;;;9.40;99.90;;;;;;4962698;28;20077;-85
2022/04/30 05:43:21;;;;;;;0.28;0.28;;;9.40;99.90;;;;;;4959320;28;20023;-84
2022/04/30 05:45:47;;;;;;;0.20;0.20;;;9.50;99.90;;;;;;4961779;28;20043;-84
2022/04/30 05:48:12;;;;;;;1.02;0.47;;;9.50;99.90;;;;;;4964684;28;20412;-84
2022/04/30 05:50:38;;;;;;;0.35;0.30;;;9.60;99.90;;;;;;4960729;28;20039;-84
2022/04/30 05:53:05;;;;;;;0.10;0.10;;;9.70;99.90;;;;;;4962839;28;20034;-84
2022/04/30 05:55:31;;;;;;;0.00;0.00;;;9.80;99.90;;;;;;4960911;28;20110;-85
2022/04/30 05:57:56;;;;;;;0.10;0.10;;;9.90;99.90;;;;;;4962171;28;20065;-84
2022/04/30 06:00:22;;;;;;;0.00;0.00;;;10.00;99.90;;;;;;4961132;28;20119;-83
2022/04/30 06:02:48;;;;;;;1.55;1.08;;;10.10;99.90;;;;;;4961354;28;20031;-84
2022/04/30 06:05:14;;;;;;;0.40;0.40;;;10.10;99.90;;;;;;4957839;28;20038;-85
2022/04/30 06:07:39;;;;;;;0.05;0.05;;;10.20;99.90;;;;;;4963278;28;20034;-85
2022/04/30 06:10:11;;;;;;;0.10;0.10;;;10.20;99.90;;;;;;4964344;28;20487;-77
2022/04/30 06:12:37;;;;;;;0.63;0.57;;;10.40;99.90;;;;;;4959382;28;20053;-77
2022/04/30 06:15:03;;;;;;;0.10;0.10;;;10.40;99.90;;;;;;4964946;28;20460;-78
2022/04/30 06:17:29;;;;;;;0.73;0.40;;;10.50;99.90;;;;;;4960342;28;20038;-80
2022/04/30 06:19:54;;;;;;;0.57;0.55;;;10.60;99.90;;;;;;4963024;28;20090;-82
2022/04/30 06:22:20;;;;;;;0.88;0.80;;;10.60;99.90;;;;;;4963071;28;20006;-83
2022/04/30 06:24:45;;;;;;;0.05;0.05;;;10.40;99.90;;;;;;4964161;28;21613;-82
2022/04/30 06:27:11;;;;;;;0.13;0.13;;;10.60;99.90;;;;;;4962938;28;20058;-83
2022/04/30 06:29:38;;;;;;;0.10;0.10;;;10.90;99.90;;;;;;4965567;28;20034;-81
2022/04/30 06:32:04;;;;;;;0.30;0.30;;;11.00;99.90;;;;;;4964591;28;20073;-78
2022/04/30 06:34:30;;;;;;;0.10;0.10;;;11.10;99.00;;;;;;4964339;28;20035;-80
2022/04/30 06:36:55;;;;;;;0.10;0.10;;;11.20;99.20;;;;;;4962419;28;20053;-80
2022/04/30 06:39:20;;;;;;;0.00;0.00;;;11.30;99.50;;;;;;4963623;28;20082;-79
2022/04/30 06:41:46;;;;;;;9.35;0.98;;;11.30;98.60;;;;;;4960811;28;20019;-80
2022/04/30 06:44:11;;;;;;;0.63;0.52;;;11.30;99.00;;;;;;4961406;28;20757;-80
2022/04/30 06:46:37;;;;;;;0.38;0.38;;;11.50;98.10;;;;;;4962221;28;20569;-77
2022/04/30 06:49:04;;;;;;;0.70;0.45;;;11.50;97.90;;;;;;4961698;28;20035;-80
2022/04/30 06:51:29;;;;;;;0.45;0.45;;;11.60;98.20;;;;;;4958928;28;20118;-80
2022/04/30 06:59:23;;;;;;;0.98;0.75;;;11.80;96.60;;;;;;4961932;28;20050;-79
2022/04/30 07:02:01;;;;;;;0.32;0.32;;;11.80;97.40;;;;;;4960214;28;20034;-80
2022/04/30 07:04:29;;;;;;;0.45;0.40;;;12.00;97.20;;;;;;4960078;28;20121;-80
2022/04/30 07:06:55;;;;;;;0.00;0.00;;;12.20;96.50;;;;;;4961295;28;20435;-78
2022/04/30 07:09:21;;;;;;;0.15;0.15;;;12.40;95.70;;;;;;4959840;28;20034;-80
2022/04/30 07:11:47;;;;;;;0.68;0.13;;;12.20;96.60;;;;;;4961946;28;20114;-78
2022/04/30 07:14:12;;;;;;;0.15;0.15;;;12.40;96.60;;;;;;4959942;28;20050;-79
2022/04/30 07:16:38;;;;;;;1.02;0.98;;;12.50;94.90;;;;;;4962551;28;20037;-79
2022/04/30 07:19:04;;;;;;;1.30;0.43;;;12.60;95.10;;;;;;4958103;28;20082;-80
2022/04/30 07:21:31;;;;;;;0.00;0.00;;;12.60;94.80;;;;;;4959780;28;20840;-81
2022/04/30 07:23:57;;;;;;;0.80;0.65;;;12.50;95.00;;;;;;4959465;28;20039;-78
2022/04/30 07:26:23;;;;;;;0.10;0.10;;;12.50;95.50;;;;;;4959980;28;20026;-82
2022/04/30 07:28:48;;;;;;;4.95;0.75;;;12.60;93.40;;;;;;4957476;28;20043;-84
2022/04/30 07:31:14;;;;;;;0.35;0.35;;;12.90;94.30;;;;;;4958506;28;20528;-85
2022/04/30 07:33:39;;;;;;;0.05;0.05;;;12.90;94.00;;;;;;4958683;28;21722;-86
2022/04/30 07:36:05;;;;;;;0.10;0.10;;;13.00;93.20;;;;;;4960220;28;20030;-86
2022/04/30 07:38:31;;;;;;;0.57;0.57;;;13.20;92.50;;;;;;4960204;28;20674;-86
2022/04/30 07:40:56;;;;;;;0.85;0.50;;;13.30;91.20;;;;;;4960368;28;20035;-86
2022/04/30 07:43:22;;;;;;;1.45;0.95;;;13.40;91.20;;;;;;4964712;28;20033;-86
2022/04/30 07:45:48;;;;;;;1.65;0.82;;;13.30;90.60;;;;;;4963377;28;20046;-85
2022/04/30 07:48:13;;;;;;;0.30;0.30;;;13.40;89.80;;;;;;4963825;28;20233;-85
2022/04/30 07:50:39;;;;;;;0.30;0.30;;;13.40;88.50;;;;;;4960447;28;20039;-85
2022/04/30 07:53:05;;;;;;;0.30;0.30;;;13.50;90.00;;;;;;4954084;28;20497;-85
2022/04/30 07:55:32;;;;;;;0.45;0.45;;;13.50;89.00;;;;;;4956863;28;20130;-85
2022/04/30 07:57:58;;;;;;;1.20;0.68;;;13.60;89.70;;;;;;4956668;28;20023;-86
2022/04/30 08:00:24;;;;;;;0.75;0.75;;;13.70;89.30;;;;;;4958950;28;20121;-86
2022/04/30 08:02:50;;;;;;;0.00;0.00;;;13.80;87.00;;;;;;4956932;28;20041;-86
2022/04/30 08:05:16;;;;;;;0.40;0.40;;;13.70;82.80;;;;;;4956182;28;20026;-86
2022/04/30 08:07:42;;;;;;;2.13;1.15;;;13.50;87.00;;;;;;4957562;28;20031;-86
2022/04/30 08:10:07;;;;;;;0.10;0.10;;;13.50;84.40;;;;;;4961867;28;20060;-87
2022/04/30 08:12:33;;;;;;;0.45;0.20;;;13.50;84.80;;;;;;4962257;28;20042;-86
2022/04/30 08:14:58;;;;;;;0.25;0.25;;;13.70;84.90;;;;;;4961084;28;20541;-85
2022/04/30 08:17:27;;;;;;;0.93;0.90;;;13.90;83.50;;;;;;4957480;28;20032;-87
2022/04/30 08:19:52;;;;;;;0.17;0.17;;;14.00;85.10;;;;;;4957084;28;20438;-86
2022/04/30 08:22:18;;;;;;;0.10;0.10;;;14.20;83.20;;;;;;4959991;28;20025;-87
2022/04/30 08:24:43;;;;;;;0.10;0.10;;;14.40;81.50;;;;;;4959485;28;20033;-87
2022/04/30 08:27:09;;;;;;;0.10;0.10;;;14.60;81.80;;;;;;4959829;28;20031;-84
2022/04/30 08:29:34;;;;;;;0.15;0.13;;;14.70;78.80;;;;;;4958079;28;20029;-81
2022/04/30 08:32:00;;;;;;;0.08;0.08;;;14.80;78.60;;;;;;4962449;28;20481;-85
2022/04/30 08:34:26;;;;;;;0.52;0.40;;;14.50;76.80;;;;;;4959258;28;20052;-84
2022/04/30 08:36:52;;;;;;;0.08;0.08;;;14.50;78.10;;;;;;4960617;28;20034;-84
2022/04/30 08:39:17;;;;;;;0.32;0.20;;;14.50;80.40;;;;;;4956907;28;20504;-85
2022/04/30 08:41:43;;;;;;;0.63;0.43;;;14.40;80.70;;;;;;4952202;28;20668;-85
2022/04/30 08:44:16;;;;;;;0.10;0.10;;;14.40;76.60;;;;;;4956757;28;20402;-85
2022/04/30 08:46:42;;;;;;;0.10;0.10;;;14.50;80.20;;;;;;4963606;28;20093;-86
2022/04/30 08:49:08;;;;;;;0.17;0.17;;;14.40;77.50;;;;;;4964487;28;20035;-85
2022/04/30 08:51:34;;;;;;;0.00;0.00;;;14.30;80.10;;;;;;4968861;28;20041;-86
2022/04/30 08:54:00;;;;;;;0.00;0.00;;;14.20;83.50;;;;;;4969809;28;20031;-85
2022/04/30 08:56:25;;;;;;;3.95;0.45;;;14.30;84.20;;;;;;4966584;28;20033;-78
2022/04/30 08:58:56;;;;;;;1.10;0.57;;;14.20;86.00;;;;;;4965824;28;20041;-78
2022/04/30 09:01:22;;;;;;;0.40;0.40;;;14.10;83.30;;;;;;4965600;28;20445;-83
2022/04/30 09:03:48;;;;;;;0.00;0.00;;;14.30;79.50;;;;;;4965633;28;20062;-86
2022/04/30 09:06:20;;;;;;;0.20;0.20;;;14.40;83.10;;;;;;4970584;28;20417;-86
2022/04/30 09:08:49;;;;;;;1.17;0.85;;;14.40;85.50;;;;;;4969947;28;20665;-79
2022/04/30 09:11:15;;;;;;;0.20;0.20;;;14.40;82.90;;;;;;4970763;28;20290;-79
2022/04/30 09:13:43;;;;;;;0.10;0.10;;;14.50;81.80;;;;;;4964770;28;20062;-81
2022/04/30 09:16:19;;;;;;;0.30;0.30;;;14.60;82.40;;;;;;4968802;28;20082;-81
2022/04/30 09:18:45;;;;;;;0.25;0.25;;;14.70;81.20;;;;;;4967906;28;20241;-81
2022/04/30 09:21:14;;;;;;;1.20;0.60;;;14.70;76.90;;;;;;4968355;28;20528;-81
2022/04/30 09:23:40;;;;;;;0.00;0.00;;;14.80;80.10;;;;;;4969334;28;20102;-82
2022/04/30 09:26:06;;;;;;;0.10;0.10;;;14.80;78.60;;;;;;4971397;28;20561;-77
2022/04/30 09:28:36;;;;;;;4.57;1.27;;;14.80;78.40;;;;;;4972358;28;20034;-79
2022/04/30 09:31:20;;;;;;;0.73;0.40;;;15.00;75.80;;;;;;4970183;28;20027;-77
2022/04/30 09:33:55;;;;;;;1.10;0.57;;;15.20;76.10;;;;;;4969781;28;20035;-75
2022/04/30 09:39:12;;;;;;;1.55;0.77;;;15.20;77.30;;;;;;4972647;28;20675;-75
2022/04/30 09:41:37;;;;;;;1.17;0.60;;;15.40;77.30;;;;;;4970533;28;20034;-75
2022/04/30 09:44:05;;;;;;;0.20;0.20;;;15.60;77.00;;;;;;4977325;28;20046;-75
2022/04/30 09:46:33;;;;;;;0.20;0.15;;;15.80;76.90;;;;;;4970497;28;20053;-75
2022/04/30 09:54:29;;;;;;;3.83;0.88;;;16.20;71.90;;;;;;4966755;28;20037;-75
2022/04/30 09:56:57;;;;;;;0.50;0.22;;;16.40;68.90;;;;;;4975980;28;20034;-75
2022/04/30 09:59:25;;;;;;;3.00;1.65;;;16.50;70.20;;;;;;4963506;28;20030;-75
2022/04/30 10:01:53;;;;;;;0.22;0.22;;;16.40;72.60;;;;;;4969762;28;20035;-75
2022/04/30 10:04:19;;;;;;;0.30;0.30;;;16.70;71.20;;;;;;4970011;28;20041;-75
2022/04/30 10:06:48;;;;;;;0.57;0.57;;;16.70;70.80;;;;;;4974538;28;20046;-75
2022/04/30 10:09:20;;;;;;;0.70;0.55;;;16.80;72.00;;;;;;4969937;28;20932;-75
2022/04/30 10:12:19;;;;;;;0.32;0.25;;;16.90;70.90;;;;;;4963629;28;20043;-75
2022/04/30 10:14:51;;;;;;;0.43;0.40;;;17.00;68.20;;;;;;4951352;28;20027;-76
2022/04/30 10:17:17;;;;;;;3.75;0.55;;;17.20;67.70;;;;;;4967732;28;20036;-79
2022/04/30 10:19:45;;;;;;;0.60;0.60;;;17.10;65.40;;;;;;4968685;28;20178;-80
2022/04/30 10:22:15;;;;;;;0.50;0.50;;;17.30;67.50;;;;;;4966616;28;20160;-80
2022/04/30 10:24:46;;;;;;;0.50;0.38;;;17.60;69.50;;;;;;4967267;28;20098;-80
2022/04/30 10:27:12;;;;;;;0.17;0.17;;;17.70;65.80;;;;;;4967217;28;20566;-78
2022/04/30 10:29:49;;;;;;;1.08;0.65;;;18.00;68.60;;;;;;4971079;28;20111;-78
2022/04/30 10:32:30;;;;;;;0.30;0.30;;;18.30;67.70;;;;;;4968549;28;20548;-78
2022/04/30 10:34:57;;;;;;;0.10;0.10;;;18.50;65.30;;;;;;4968633;28;20054;-78
2022/04/30 10:37:29;;;;;;;0.75;0.75;;;18.60;62.70;;;;;;4969084;28;20057;-78
2022/04/30 10:39:56;;;;;;;1.35;0.73;;;18.70;60.80;;;;;;4965299;28;20469;-78
2022/04/30 10:42:38;;;;;;;2.13;1.13;;;18.60;62.40;;;;;;4968366;28;20034;-77
2022/04/30 10:45:04;;;;;;;0.15;0.15;;;18.60;60.70;;;;;;4957461;28;20527;-77
2022/04/30 10:47:29;;;;;;;0.38;0.22;;;18.60;61.30;;;;;;4968654;28;20026;-77
2022/04/30 10:49:55;;;;;;;0.45;0.38;;;18.80;62.20;;;;;;4966562;28;20089;-77
2022/04/30 10:52:24;;;;;;;0.75;0.75;;;18.60;59.60;;;;;;4969162;28;20043;-78
2022/04/30 10:54:50;;;;;;;0.95;0.60;;;18.50;61.70;;;;;;4965922;28;20022;-77
2022/04/30 10:57:16;;;;;;;0.63;0.63;;;18.60;60.40;;;;;;4966145;28;20023;-77
2022/04/30 10:59:42;;;;;;;1.35;0.63;;;18.60;60.30;;;;;;4972139;28;20027;-77
2022/04/30 11:02:11;;;;;;;0.10;0.10;;;18.70;61.70;;;;;;4969678;28;20058;-86
2022/04/30 11:04:37;;;;;;;1.20;1.10;;;18.60;62.30;;;;;;4974270;28;20485;-83
2022/04/30 11:07:03;;;;;;;0.00;0.00;;;18.60;60.90;;;;;;4966630;28;20041;-85
2022/04/30 11:09:29;;;;;;;0.47;0.40;;;18.70;61.80;;;;;;4962010;28;20086;-84
2022/04/30 11:11:56;;;;;;;14.27;2.45;;;18.70;60.30;;;;;;4963169;28;20552;-84
2022/04/30 11:14:23;;;;;;;0.20;0.20;;;19.00;59.20;;;;;;4967289;28;20101;-84
2022/04/30 11:16:52;;;;;;;0.30;0.30;;;19.30;57.80;;;;;;4968123;28;20026;-86
2022/04/30 11:19:19;;;;;;;0.45;0.40;;;19.60;57.50;;;;;;4962525;28;20038;-85
2022/04/30 11:21:52;;;;;;;2.50;0.85;;;19.70;59.40;;;;;;4965944;28;20034;-84
2022/04/30 11:24:28;;;;;;;1.15;0.30;;;20.10;55.80;;;;;;4963353;28;20054;-85
2022/04/30 11:27:03;;;;;;;1.80;0.98;;;20.40;56.70;;;;;;4965981;28;20047;-85
2022/04/30 11:29:29;;;;;;;1.45;0.82;;;20.70;54.80;;;;;;4968418;28;20886;-85
2022/04/30 11:31:56;;;;;;;0.85;0.38;;;20.90;53.60;;;;;;4972339;28;20045;-85
2022/04/30 11:34:22;;;;;;;0.82;0.55;;;20.70;53.50;;;;;;4969917;28;20496;-85
2022/04/30 11:36:56;;;;;;;0.47;0.47;;;20.80;53.20;;;;;;4967159;28;20031;-85
2022/04/30 11:39:22;;;;;;;0.80;0.80;;;20.70;55.60;;;;;;4964018;28;20022;-85
2022/04/30 11:41:53;;;;;;;1.77;0.95;;;20.90;53.50;;;;;;4965629;28;20398;-84
2022/04/30 11:44:24;;;;;;;0.20;0.20;;;21.10;51.20;;;;;;4970079;28;20041;-86
2022/04/30 11:46:51;;;;;;;0.10;0.10;;;21.40;54.40;;;;;;4966417;28;20101;-79
2022/04/30 11:49:19;;;;;;;0.10;0.10;;;21.80;52.00;;;;;;4968917;28;20059;-79
2022/04/30 11:51:47;;;;;;;121.35;20.63;;;22.50;49.70;;;;;;4972534;28;20043;-77
2022/04/30 11:54:21;;;;;;;4.63;2.17;;;22.50;52.30;;;;;;4968693;28;20057;-80
2022/04/30 11:56:49;;;;;;;0.25;0.25;;;22.00;50.70;;;;;;4972642;28;20027;-81
2022/04/30 11:59:15;;;;;;;0.40;0.40;;;22.00;52.00;;;;;;4966334;28;20033;-79
2022/04/30 12:01:42;;;;;;;0.38;0.38;;;22.30;50.40;;;;;;4968494;28;20047;-77
2022/04/30 12:04:18;;;;;;;0.57;0.57;;;22.30;49.20;;;;;;4972205;28;20030;-77
2022/04/30 12:06:44;;;;;;;0.68;0.68;;;21.80;47.90;;;;;;4970646;28;22119;-77
2022/04/30 12:09:14;;;;;;;0.25;0.25;;;21.30;50.60;;;;;;4972701;28;20081;-77
2022/04/30 12:11:44;;;;;;;6.00;2.07;;;21.50;49.00;;;;;;4969720;28;20031;-80
2022/04/30 12:14:11;;;;;;;0.17;0.17;;;21.60;50.40;;;;;;4972666;28;20573;-80
2022/04/30 12:16:39;;;;;;;0.15;0.15;;;21.80;50.10;;;;;;4969148;28;20031;-76
2022/04/30 12:24:43;;;;;;;0.32;0.32;;;22.50;49.20;;;;;;4971657;28;20564;-78
2022/04/30 12:27:10;;;;;;;0.43;0.38;;;22.70;49.60;;;;;;4969029;28;20070;-78
2022/04/30 12:29:36;;;;;;;0.47;0.47;;;23.00;47.90;;;;;;4972839;28;20038;-76
2022/04/30 12:32:55;;;;;;;0.35;0.35;;;23.30;48.20;;;;;;4970359;28;20034;-76
2022/04/30 12:35:26;;;;;;;1.23;0.85;;;24.00;47.50;;;;;;4972782;28;20019;-76
2022/04/30 12:38:03;;;;;;;1.90;0.90;;;24.90;44.60;;;;;;4972214;28;20042;-76
2022/04/30 12:40:29;;;;;;;12.35;1.40;;;25.70;44.70;;;;;;4970702;28;20646;-76
2022/04/30 12:42:55;;;;;;;0.30;0.30;;;26.00;42.50;;;;;;4973018;28;20035;-76
2022/04/30 12:45:20;;;;;;;0.30;0.30;;;26.00;42.50;;;;;;4970951;28;20039;-76
2022/04/30 12:47:45;;;;;;;0.32;0.32;;;25.90;40.70;;;;;;4971241;28;20035;-77
2022/04/30 12:50:11;;;;;;;1.65;0.95;;;25.40;39.60;;;;;;4973113;28;20038;-76
2022/04/30 12:52:36;;;;;;;2.00;1.58;;;24.90;41.50;;;;;;4973194;28;20377;-79
2022/04/30 12:55:03;;;;;;;0.45;0.30;;;25.30;42.90;;;;;;4970049;28;20027;-77
2022/04/30 12:57:29;;;;;;;0.35;0.35;;;25.00;41.60;;;;;;4961341;28;20324;-77
2022/04/30 12:59:54;;;;;;;0.73;0.73;;;25.50;40.70;;;;;;4969921;28;20034;-76
2022/04/30 13:02:23;;;;;;;0.80;0.80;;;25.70;40.50;;;;;;4971721;28;20030;-81
2022/04/30 13:04:51;;;;;;;0.40;0.40;;;25.20;41.50;;;;;;4970788;28;20030;-78
2022/04/30 13:07:18;;;;;;;0.77;0.70;;;25.80;40.30;;;;;;4971947;28;20073;-77
2022/04/30 13:15:12;;;;;;;1.30;1.20;;;28.30;35.60;;;;;;4970146;28;20084;-77
2022/04/30 13:17:38;;;;;;;1.95;0.80;;;28.60;35.10;;;;;;4969584;28;20063;-78
2022/04/30 13:20:05;;;;;;;0.03;0.03;;;29.80;34.40;;;;;;4969127;28;20031;-78
2022/04/30 13:22:32;;;;;;;1.45;0.40;;;29.40;32.30;;;;;;4972099;28;20768;-79
2022/04/30 13:24:58;;;;;;;0.55;0.50;;;30.20;32.80;;;;;;4971734;28;20429;-79
2022/04/30 13:27:24;;;;;;;0.30;0.22;;;30.10;32.10;;;;;;4969214;28;20035;-79
2022/04/30 13:29:49;;;;;;;0.38;0.38;;;29.50;31.80;;;;;;4971848;28;20643;-78
2022/04/30 13:32:15;;;;;;;1.38;0.32;;;29.60;33.30;;;;;;4978277;28;20037;-79
2022/04/30 13:34:41;;;;;;;0.77;0.70;;;29.60;32.70;;;;;;4971275;28;20034;-77